createdAt,value
2019-01-09T00:01:14.409Z,100813.67
2019-01-09T00:03:43.679Z,100819.36
2019-01-09T00:06:12.967Z,100821.57
2019-01-09T00:08:42.269Z,100826.73
2019-01-09T00:11:11.585Z,100818.50
2019-01-09T00:13:40.900Z,100823.30
2019-01-09T00:16:10.164Z,100821.57
2019-01-09T00:18:39.501Z,100829.02
2019-01-09T00:21:08.789Z,100832.98
2019-01-09T00:23:38.054Z,100825.09
2019-01-09T00:26:07.341Z,100821.16
2019-01-09T00:28:36.609Z,100832.50
2019-01-09T00:31:05.991Z,100824.19
2019-01-09T00:33:35.267Z,100832.45
2019-01-09T00:36:04.547Z,100831.59
2019-01-09T00:38:33.975Z,100843.38
2019-01-09T00:41:03.245Z,100846.41
2019-01-09T00:43:32.579Z,100855.55
2019-01-09T00:46:01.880Z,100838.56
2019-01-09T00:48:31.135Z,100848.55
2019-01-09T00:51:00.475Z,100849.45
2019-01-09T00:53:29.743Z,100855.13
2019-01-09T00:55:59.053Z,100852.10
2019-01-09T00:58:28.316Z,100855.55
2019-01-09T01:00:57.601Z,100861.20
2019-01-09T01:04:18.387Z,100873.02
2019-01-09T01:07:20.507Z,100871.27
2019-01-09T01:10:17.424Z,100889.63
2019-01-09T01:13:27.380Z,100890.02
2019-01-09T01:16:46.233Z,100883.91
2019-01-09T01:19:58.901Z,100890.87
2019-01-09T01:23:00.122Z,100908.80
2019-01-09T01:26:26.243Z,100914.90
2019-01-09T01:29:25.739Z,100897.42
2019-01-09T01:32:34.090Z,100897.87
2019-01-09T01:35:54.766Z,100899.19
2019-01-09T01:38:50.403Z,100900.48
2019-01-09T01:41:33.439Z,100906.17
2019-01-09T01:44:30.077Z,100912.28
2019-01-09T01:47:55.983Z,100923.17
2019-01-09T01:51:01.145Z,100915.34
2019-01-09T01:54:33.637Z,100920.62
2019-01-09T01:57:40.580Z,100925.47
2019-01-09T02:00:56.746Z,100906.69
2019-01-09T02:04:00.371Z,100928.98
2019-01-09T02:07:03.309Z,100931.60
2019-01-09T02:10:17.835Z,100939.04
2019-01-09T02:13:30.497Z,100938.63
2019-01-09T02:16:39.222Z,100946.06
2019-01-09T02:19:48.783Z,100959.52
2019-01-09T02:22:55.739Z,100948.17
2019-01-09T02:25:59.835Z,100969.55
2019-01-09T02:29:14.344Z,100970.41
2019-01-09T02:32:10.059Z,100967.46
2019-01-09T02:34:39.309Z,100972.70
2019-01-09T02:37:08.584Z,100980.58
2019-01-09T02:39:37.894Z,100977.13
2019-01-09T02:42:07.163Z,100982.36
2019-01-09T02:44:36.540Z,100986.73
2019-01-09T02:47:05.781Z,101002.04
2019-01-09T02:49:35.041Z,100988.50
2019-01-09T02:52:04.287Z,100996.78
2019-01-09T02:54:33.598Z,100993.31
2019-01-09T02:57:02.863Z,101005.54
2019-01-09T02:59:32.144Z,100996.84
2019-01-09T03:02:01.393Z,100986.77
2019-01-09T03:04:30.700Z,100997.27
2019-01-09T03:06:59.974Z,100993.34
2019-01-09T03:09:29.295Z,101002.53
2019-01-09T03:11:58.635Z,100995.56
2019-01-09T03:14:27.894Z,101000.37
2019-01-09T03:16:57.133Z,101003.46
2019-01-09T03:19:26.421Z,100995.16
2019-01-09T03:21:55.747Z,101006.95
2019-01-09T03:24:24.996Z,100992.59
2019-01-09T03:26:54.341Z,100997.40
2019-01-09T03:29:23.642Z,101006.98
2019-01-09T03:31:52.966Z,101016.16
2019-01-09T03:34:22.217Z,101014.43
2019-01-09T03:36:51.569Z,101008.33
2019-01-09T03:39:20.944Z,101014.02
2019-01-09T03:41:50.255Z,101018.36
2019-01-09T03:44:19.499Z,101034.52
2019-01-09T03:46:48.791Z,101025.80
2019-01-09T03:49:18.065Z,101022.33
2019-01-09T03:51:47.346Z,101029.71
2019-01-09T03:54:16.619Z,101031.48
2019-01-09T03:56:45.857Z,101039.73
2019-01-09T03:59:15.117Z,101035.84
2019-01-09T04:01:44.354Z,101044.12
2019-01-09T04:04:13.666Z,101048.91
2019-01-09T04:06:42.926Z,101040.21
2019-01-09T04:09:12.239Z,101045.02
2019-01-09T04:11:41.537Z,101047.66
2019-01-09T04:14:10.859Z,101052.47
2019-01-09T04:16:40.231Z,101054.21
2019-01-09T04:19:09.579Z,101048.96
2019-01-09T04:21:38.879Z,101059.44
2019-01-09T04:24:08.167Z,101054.63
2019-01-09T04:26:37.429Z,101059.45
2019-01-09T04:29:06.705Z,101062.49
2019-01-09T04:31:36.005Z,101050.72
2019-01-09T04:34:05.239Z,101058.09
2019-01-09T04:36:34.577Z,101065.13
2019-01-09T04:39:04.864Z,101061.64
2019-01-09T04:41:34.163Z,101048.54
2019-01-09T04:44:03.430Z,101062.93
2019-01-09T04:46:32.734Z,101058.13
2019-01-09T04:49:02.188Z,101073.39
2019-01-09T04:51:31.480Z,101064.69
2019-01-09T04:54:00.772Z,101073.38
2019-01-09T04:56:30.096Z,101068.16
2019-01-09T04:58:59.351Z,101071.65
2019-01-09T05:01:28.671Z,101071.22
2019-01-09T05:03:57.906Z,101067.71
2019-01-09T05:06:27.197Z,101069.05
2019-01-09T05:08:56.445Z,101078.19
2019-01-09T05:11:25.809Z,101075.13
2019-01-09T05:13:55.140Z,101077.76
2019-01-09T05:16:24.492Z,101084.27
2019-01-09T05:18:53.947Z,101084.29
2019-01-09T05:21:23.295Z,101071.64
2019-01-09T05:23:52.580Z,101085.59
2019-01-09T05:26:21.823Z,101082.13
2019-01-09T05:28:51.139Z,101089.51
2019-01-09T05:31:20.447Z,101106.53
2019-01-09T05:33:49.753Z,101090.81
2019-01-09T05:36:19.016Z,101095.63
2019-01-09T05:38:48.267Z,101080.82
2019-01-09T05:41:17.631Z,101090.83
2019-01-09T05:43:46.903Z,101094.77
2019-01-09T05:46:16.174Z,101080.36
2019-01-09T05:48:45.467Z,101106.53
2019-01-09T05:51:15.406Z,101088.22
2019-01-09T05:53:44.479Z,101089.94
2019-01-09T05:56:13.737Z,101089.97
2019-01-09T05:58:43.127Z,101088.64
2019-01-09T06:01:12.450Z,101092.56
2019-01-09T06:03:41.687Z,101097.80
2019-01-09T06:06:10.959Z,101083.42
2019-01-09T06:08:40.253Z,101097.39
2019-01-09T06:11:09.550Z,101109.59
2019-01-09T06:13:38.834Z,101116.14
2019-01-09T06:16:08.110Z,101112.66
2019-01-09T06:18:37.375Z,101117.00
2019-01-09T06:21:06.606Z,101116.14
2019-01-09T06:23:35.842Z,101122.24
2019-01-09T06:26:05.154Z,101125.29
2019-01-09T06:28:34.405Z,101128.77
2019-01-09T06:31:03.741Z,101124.38
2019-01-09T06:33:33.059Z,101142.26
2019-01-09T06:36:03.915Z,101144.04
2019-01-09T06:38:31.603Z,101148.82
2019-01-09T06:41:00.893Z,101139.22
2019-01-09T06:43:30.268Z,101136.62
2019-01-09T06:45:59.545Z,101147.97
2019-01-09T06:48:28.844Z,101145.78
2019-01-09T06:50:58.161Z,101155.39
2019-01-09T06:53:27.536Z,101158.42
2019-01-09T06:55:56.927Z,101148.41
2019-01-09T06:58:26.186Z,100992.56
2019-01-09T07:00:55.428Z,101168.02
2019-01-09T07:03:24.763Z,101166.73
2019-01-09T07:05:54.076Z,101178.06
2019-01-09T07:08:23.350Z,101181.97
2019-01-09T07:10:52.764Z,101175.42
2019-01-09T07:13:22.053Z,101188.09
2019-01-09T07:15:51.378Z,101180.66
2019-01-09T07:18:20.632Z,101195.48
2019-01-09T07:20:49.962Z,101188.95
2019-01-09T07:23:19.263Z,101176.72
2019-01-09T07:25:48.608Z,101183.30
2019-01-09T07:28:17.872Z,101189.39
2019-01-09T07:30:47.137Z,101192.02
2019-01-09T07:33:16.458Z,101202.03
2019-01-09T07:35:45.803Z,101192.89
2019-01-09T07:38:15.063Z,101195.05
2019-01-09T07:40:44.339Z,101205.95
2019-01-09T07:43:13.635Z,101192.89
2019-01-09T07:45:43.017Z,101199.86
2019-01-09T07:48:12.271Z,101205.51
2019-01-09T07:50:41.563Z,101212.94
2019-01-09T07:53:10.808Z,101212.05
2019-01-09T07:55:40.077Z,101217.30
2019-01-09T07:58:09.360Z,101203.76
2019-01-09T08:00:38.642Z,101215.54
2019-01-09T08:03:07.921Z,101217.30
2019-01-09T08:05:37.167Z,101224.70
2019-01-09T08:08:06.499Z,101211.19
2019-01-09T08:10:35.829Z,101220.34
2019-01-09T08:13:05.194Z,101227.73
2019-01-09T08:15:34.465Z,101226.87
2019-01-09T08:18:03.767Z,101226.01
2019-01-09T08:20:33.096Z,101228.60
2019-01-09T08:23:02.393Z,101230.37
2019-01-09T08:25:31.667Z,101235.16
2019-01-09T08:28:00.995Z,101239.06
2019-01-09T08:30:30.265Z,101247.36
2019-01-09T08:32:59.560Z,101249.98
2019-01-09T08:35:28.875Z,101246.48
2019-01-09T08:38:02.778Z,101254.34
2019-01-09T08:40:28.918Z,101267.41
2019-01-09T08:42:58.170Z,101257.83
2019-01-09T08:45:27.666Z,101260.86
2019-01-09T08:47:57.016Z,101258.71
2019-01-09T08:50:26.325Z,101266.99
2019-01-09T08:52:55.725Z,101271.78
2019-01-09T08:55:25.065Z,101273.97
2019-01-09T08:57:54.324Z,101278.32
2019-01-09T09:00:23.633Z,101283.55
2019-01-09T09:02:56.181Z,101287.02
2019-01-09T09:05:25.537Z,101284.42
2019-01-09T09:08:11.525Z,101287.05
2019-01-09T09:10:31.931Z,101283.11
2019-01-09T09:13:01.299Z,101296.64
2019-01-09T09:15:30.626Z,101296.64
2019-01-09T09:17:59.912Z,101309.28
2019-01-09T09:20:29.181Z,101308.83
2019-01-09T09:22:58.444Z,101310.59
2019-01-09T09:25:27.887Z,101310.57
2019-01-09T09:27:57.204Z,101303.59
2019-01-09T09:30:26.517Z,101316.67
2019-01-09T09:32:55.934Z,101326.72
2019-01-09T09:35:25.424Z,101319.73
2019-01-09T09:37:54.851Z,101325.85
2019-01-09T09:40:26.841Z,101332.41
2019-01-09T09:42:53.461Z,101336.75
2019-01-09T09:45:22.867Z,101337.20
2019-01-09T09:47:52.151Z,101347.23
2019-01-09T09:50:21.401Z,101353.33
2019-01-09T09:52:50.740Z,101360.31
2019-01-09T09:55:20.011Z,101349.86
2019-01-09T09:57:49.370Z,101362.94
2019-01-09T10:00:20.297Z,101361.17
2019-01-09T10:02:49.579Z,101361.17
2019-01-09T10:05:18.875Z,101370.36
2019-01-09T10:07:48.166Z,101367.72
2019-01-09T10:10:17.505Z,101370.77
2019-01-09T10:12:46.804Z,101369.47
2019-01-09T10:15:16.073Z,101370.77
2019-01-09T10:17:45.389Z,101370.78
2019-01-09T10:20:15.032Z,101373.83
2019-01-09T10:22:44.389Z,101376.45
2019-01-09T10:25:13.661Z,101379.50
2019-01-09T10:27:42.992Z,101382.11
2019-01-09T10:30:15.193Z,101382.56
2019-01-09T10:32:44.559Z,101387.33
2019-01-09T10:35:13.973Z,101393.47
2019-01-09T10:37:43.782Z,101394.31
2019-01-09T10:40:14.853Z,101395.66
2019-01-09T10:42:44.128Z,101400.02
2019-01-09T10:45:15.179Z,101399.56
2019-01-09T10:47:44.405Z,101400.43
2019-01-09T10:50:14.123Z,101392.59
2019-01-09T10:52:43.496Z,101395.20
2019-01-09T10:55:13.704Z,101412.66
2019-01-09T10:57:42.995Z,101410.48
2019-01-09T11:00:24.373Z,101407.44
2019-01-09T11:02:53.539Z,101402.20
2019-01-09T11:05:22.891Z,101404.36
2019-01-09T11:07:52.153Z,101402.63
2019-01-09T11:10:21.717Z,101405.66
2019-01-09T11:12:50.999Z,101399.13
2019-01-09T11:15:20.274Z,101407.42
2019-01-09T11:17:49.540Z,101412.64
2019-01-09T11:20:20.251Z,101415.25
2019-01-09T11:22:49.513Z,101407.41
2019-01-09T11:25:20.983Z,101410.02
2019-01-09T11:27:50.312Z,101412.66
2019-01-09T11:30:19.592Z,101413.52
2019-01-09T11:32:48.901Z,101409.58
2019-01-09T11:35:19.513Z,101413.54
2019-01-09T11:37:48.839Z,101421.38
2019-01-09T11:40:18.517Z,101412.23
2019-01-09T11:42:47.849Z,101419.20
2019-01-09T11:45:17.841Z,101424.86
2019-01-09T11:47:47.164Z,101419.21
2019-01-09T11:50:16.602Z,101423.55
2019-01-09T11:52:46.034Z,101420.50
2019-01-09T11:55:15.758Z,101431.84
2019-01-09T11:57:45.052Z,101430.53
2019-01-09T12:00:32.373Z,101439.69
2019-01-09T12:03:01.691Z,101442.29
2019-01-09T12:05:30.951Z,101426.16
2019-01-09T12:08:00.256Z,101434.03
2019-01-09T12:10:30.472Z,101435.77
2019-01-09T12:12:59.053Z,101430.09
2019-01-09T12:15:28.401Z,101430.53
2019-01-09T12:17:58.000Z,101433.61
2019-01-09T12:20:27.339Z,101441.45
2019-01-09T12:22:56.603Z,101430.09
2019-01-09T12:25:25.959Z,101438.38
2019-01-09T12:27:55.271Z,101441.44
2019-01-09T12:30:26.590Z,101451.47
2019-01-09T12:32:55.863Z,101450.58
2019-01-09T12:35:25.179Z,101450.16
2019-01-09T12:37:54.564Z,101454.08
2019-01-09T12:40:23.887Z,101450.59
2019-01-09T12:42:53.151Z,101451.89
2019-01-09T12:45:22.493Z,101461.48
2019-01-09T12:47:51.766Z,101459.30
2019-01-09T12:50:23.798Z,101472.83
2019-01-09T12:52:53.249Z,101464.53
2019-01-09T12:55:22.489Z,101465.44
2019-01-09T12:57:51.760Z,101471.09
2019-01-09T13:00:28.553Z,101471.53
2019-01-09T13:02:57.909Z,101486.78
2019-01-09T13:05:27.227Z,101500.27
2019-01-09T13:07:56.566Z,101492.42
2019-01-09T13:10:25.931Z,101494.63
2019-01-09T13:12:55.216Z,101495.49
2019-01-09T13:15:24.435Z,101508.59
2019-01-09T13:17:53.761Z,101500.72
2019-01-09T13:20:23.017Z,101505.06
2019-01-09T13:22:52.359Z,101517.73
2019-01-09T13:25:21.624Z,101505.52
2019-01-09T13:27:50.883Z,101502.88
2019-01-09T13:30:22.237Z,101516.81
2019-01-09T13:32:51.600Z,101519.02
2019-01-09T13:35:20.993Z,101516.43
2019-01-09T13:37:50.255Z,101520.34
2019-01-09T13:40:20.223Z,101524.27
2019-01-09T13:42:49.499Z,101530.38
2019-01-09T13:45:20.661Z,101519.45
2019-01-09T13:47:49.929Z,101530.35
2019-01-09T13:50:19.734Z,101533.83
2019-01-09T13:52:48.959Z,101536.45
2019-01-09T13:55:18.260Z,101538.22
2019-01-09T13:57:47.552Z,101544.77
2019-01-09T14:00:18.961Z,101540.00
2019-01-09T14:02:48.411Z,101548.28
2019-01-09T14:05:17.855Z,101547.81
2019-01-09T14:07:47.231Z,101558.73
2019-01-09T14:10:24.563Z,101575.71
2019-01-09T14:12:53.915Z,101567.01
2019-01-09T14:15:23.351Z,101567.87
2019-01-09T14:17:52.657Z,101572.65
2019-01-09T14:20:21.995Z,101574.84
2019-01-09T14:22:51.449Z,101580.51
2019-01-09T14:25:20.743Z,101587.94
2019-01-09T14:27:50.024Z,101581.84
2019-01-09T14:30:21.595Z,101591.41
2019-01-09T14:32:50.885Z,101597.50
2019-01-09T14:35:20.199Z,101599.23
2019-01-09T14:37:49.587Z,101604.51
2019-01-09T14:40:18.875Z,101606.28
2019-01-09T14:42:48.191Z,101604.08
2019-01-09T14:45:17.496Z,101617.58
2019-01-09T14:47:46.908Z,101621.89
2019-01-09T14:50:18.248Z,101621.47
2019-01-09T14:52:47.573Z,101624.12
2019-01-09T14:55:17.161Z,101623.21
2019-01-09T14:57:46.588Z,101630.63
2019-01-09T15:00:20.587Z,101640.55
2019-01-09T15:02:49.907Z,101641.44
2019-01-09T15:05:19.285Z,101650.59
2019-01-09T15:07:48.605Z,101642.27
2019-01-09T15:10:20.539Z,101651.02
2019-01-09T15:12:49.971Z,101647.09
2019-01-09T15:15:19.435Z,101654.94
2019-01-09T15:17:48.876Z,101664.97
2019-01-09T15:20:18.405Z,101656.17
2019-01-09T15:22:47.888Z,101660.53
2019-01-09T15:25:17.177Z,101662.70
2019-01-09T15:27:46.464Z,101666.26
2019-01-09T15:30:23.943Z,101669.72
2019-01-09T15:32:53.241Z,101674.09
2019-01-09T15:35:22.570Z,101677.15
2019-01-09T15:37:52.021Z,101683.75
2019-01-09T15:40:23.459Z,101686.34
2019-01-09T15:42:54.853Z,101685.42
2019-01-09T15:45:24.299Z,101679.77
2019-01-09T15:47:53.535Z,101685.05
2019-01-09T15:50:23.291Z,101682.88
2019-01-09T15:52:52.570Z,101686.80
2019-01-09T15:55:21.896Z,101685.42
2019-01-09T15:57:51.487Z,101687.58
2019-01-09T16:00:32.647Z,101680.17
2019-01-09T16:03:02.283Z,101688.48
2019-01-09T16:05:31.616Z,101692.80
2019-01-09T16:08:00.911Z,101701.94
2019-01-09T16:10:30.322Z,101699.80
2019-01-09T16:12:59.725Z,101704.55
2019-01-09T16:15:29.069Z,101704.07
2019-01-09T16:17:58.422Z,101702.34
2019-01-09T16:20:27.723Z,101702.84
2019-01-09T16:22:57.109Z,101708.47
2019-01-09T16:25:26.503Z,101708.93
2019-01-09T16:27:55.937Z,101707.19
2019-01-09T16:31:06.391Z,101721.64
2019-01-09T16:33:35.671Z,101716.38
2019-01-09T16:36:06.171Z,101722.92
2019-01-09T16:38:35.501Z,101723.34
2019-01-09T16:41:05.017Z,101723.81
2019-01-09T16:43:34.434Z,101725.11
2019-01-09T16:46:03.787Z,101733.81
2019-01-09T16:48:33.387Z,101735.17
2019-01-09T16:51:03.121Z,101736.94
2019-01-09T16:53:32.473Z,101738.79
2019-01-09T16:56:01.813Z,101736.23
2019-01-09T16:58:31.235Z,101742.28
2019-01-09T17:01:00.544Z,101744.00
2019-01-09T17:03:30.274Z,101750.52
2019-01-09T17:05:59.688Z,101753.97
2019-01-09T17:08:28.949Z,101763.08
2019-01-09T17:10:58.273Z,101767.00
2019-01-09T17:13:28.130Z,101766.56
2019-01-09T17:15:57.620Z,101775.27
2019-01-09T17:18:27.042Z,101778.77
2019-01-09T17:20:57.066Z,101773.05
2019-01-09T17:23:26.390Z,101778.73
2019-01-09T17:25:57.144Z,101783.52
2019-01-09T17:28:26.429Z,101786.59
2019-01-09T17:30:55.768Z,101793.55
2019-01-09T17:33:25.239Z,101790.93
2019-01-09T17:35:54.538Z,101797.06
2019-01-09T17:38:23.873Z,101804.03
2019-01-09T17:40:53.257Z,101808.84
2019-01-09T17:43:24.608Z,101814.08
2019-01-09T17:45:51.945Z,101810.16
2019-01-09T17:48:40.171Z,101815.39
2019-01-09T17:51:09.519Z,101817.13
2019-01-09T17:53:38.952Z,101826.75
2019-01-09T17:56:08.300Z,101832.34
2019-01-09T17:58:37.584Z,101838.45
2019-01-09T18:01:07.018Z,101834.58
2019-01-09T18:03:36.437Z,101831.52
2019-01-09T18:06:05.821Z,101829.86
2019-01-09T18:08:35.120Z,101841.14
2019-01-09T18:11:04.555Z,101848.52
2019-01-09T18:13:33.961Z,101845.91
2019-01-09T18:16:03.257Z,101859.37
2019-01-09T18:18:34.544Z,101855.97
2019-01-09T18:21:01.973Z,101860.79
2019-01-09T18:23:31.309Z,101864.25
2019-01-09T18:26:00.642Z,101860.32
2019-01-09T18:28:30.092Z,101869.56
2019-01-09T18:31:51.497Z,101868.72
2019-01-09T18:34:55.021Z,101878.64
2019-01-09T18:37:51.653Z,101886.54
2019-01-09T18:40:45.520Z,101893.55
2019-01-09T18:43:47.878Z,101896.13
2019-01-09T18:46:37.599Z,101904.88
2019-01-09T18:49:58.648Z,101904.05
2019-01-09T18:52:38.433Z,101904.01
2019-01-09T18:55:08.162Z,101910.59
2019-01-09T18:57:37.545Z,101916.66
2019-01-09T19:00:11.667Z,101914.04
2019-01-09T19:02:40.987Z,101927.99
2019-01-09T19:05:10.346Z,101926.25
2019-01-09T19:07:39.765Z,101930.61
2019-01-09T19:10:14.066Z,101935.41
2019-01-09T19:12:43.479Z,101934.06
2019-01-09T19:15:12.825Z,101949.45
2019-01-09T19:17:42.267Z,101943.05
2019-01-09T19:20:11.881Z,101941.36
2019-01-09T19:22:41.223Z,101943.61
2019-01-09T19:25:10.928Z,101939.33
2019-01-09T19:27:40.265Z,101945.02
2019-01-09T19:30:15.477Z,101948.94
2019-01-09T19:32:44.805Z,101956.84
2019-01-09T19:35:14.256Z,101956.47
2019-01-09T19:37:43.579Z,101958.70
2019-01-09T19:40:12.959Z,101957.81
2019-01-09T19:42:44.485Z,101975.78
2019-01-09T19:45:12.023Z,101975.77
2019-01-09T19:47:41.317Z,101972.28
2019-01-09T19:50:13.480Z,101976.67
2019-01-09T19:52:43.003Z,101987.64
2019-01-09T19:55:12.698Z,101982.30
2019-01-09T19:57:42.063Z,101987.92
2019-01-09T20:00:15.387Z,101997.42
2019-01-09T20:02:44.737Z,101988.15
2019-01-09T20:05:14.185Z,101994.27
2019-01-09T20:07:43.640Z,101996.42
2019-01-09T20:10:15.124Z,101999.41
2019-01-09T20:12:44.517Z,102001.19
2019-01-09T20:15:14.203Z,102000.66
2019-01-09T20:17:43.369Z,102015.03
2019-01-09T20:20:14.187Z,102010.17
2019-01-09T20:22:43.486Z,102008.86
2019-01-09T20:25:12.848Z,102001.50
2019-01-09T20:27:42.061Z,102010.20
2019-01-09T20:30:15.178Z,102015.41
2019-01-09T20:32:44.604Z,102019.30
2019-01-09T20:35:13.908Z,102017.92
2019-01-09T20:37:43.218Z,102019.67
2019-01-09T20:40:12.609Z,102021.84
2019-01-09T20:42:41.951Z,102034.50
2019-01-09T20:45:11.821Z,102026.58
2019-01-09T20:47:41.089Z,102034.87
2019-01-09T20:50:14.102Z,102039.20
2019-01-09T20:52:43.443Z,102046.14
2019-01-09T20:55:12.780Z,102050.06
2019-01-09T20:57:42.091Z,102050.90
2019-01-09T21:00:15.319Z,102058.75
2019-01-09T21:02:44.565Z,102063.14
2019-01-09T21:05:17.698Z,102063.14
2019-01-09T21:07:47.086Z,102061.84
2019-01-09T21:10:16.382Z,102070.98
2019-01-09T21:12:45.613Z,102064.89
2019-01-09T21:15:15.216Z,102071.03
2019-01-09T21:17:44.475Z,102067.54
2019-01-09T21:20:15.719Z,102079.31
2019-01-09T21:22:45.006Z,102075.83
2019-01-09T21:25:14.397Z,102086.26
2019-01-09T21:27:43.723Z,102077.57
2019-01-09T21:30:17.495Z,102085.86
2019-01-09T21:32:46.933Z,102090.69
2019-01-09T21:35:16.587Z,102090.72
2019-01-09T21:37:45.865Z,102092.47
2019-01-09T21:40:23.499Z,102090.77
2019-01-09T21:42:52.764Z,102094.69
2019-01-09T21:45:22.104Z,102098.34
2019-01-09T21:47:51.527Z,102099.25
2019-01-09T21:50:20.851Z,102096.27
2019-01-09T21:52:50.153Z,102092.78
2019-01-09T21:55:19.513Z,102098.85
2019-01-09T21:57:48.789Z,102113.52
2019-01-09T22:00:32.345Z,102113.88
2019-01-09T22:03:01.643Z,102109.05
2019-01-09T22:05:30.988Z,102115.19
2019-01-09T22:08:00.328Z,102121.22
2019-01-09T22:10:32.347Z,102120.70
2019-01-09T22:13:01.637Z,102120.16
2019-01-09T22:15:30.964Z,102119.24
2019-01-09T22:18:00.246Z,102123.56
2019-01-09T22:20:29.533Z,102129.23
2019-01-09T22:22:58.861Z,102137.03
2019-01-09T22:25:28.227Z,102136.16
2019-01-09T22:27:57.566Z,102135.61
2019-01-09T22:30:27.657Z,102135.22
2019-01-09T22:32:57.106Z,102138.30
2019-01-09T22:35:26.372Z,102148.17
2019-01-09T22:37:55.675Z,102152.52
2019-01-09T22:40:24.959Z,102154.70
2019-01-09T22:42:54.241Z,102147.30
2019-01-09T22:45:23.493Z,102151.66
2019-01-09T22:47:52.778Z,102152.97
2019-01-09T22:50:23.311Z,102155.14
2019-01-09T22:52:52.588Z,102162.20
2019-01-09T22:55:22.009Z,102169.56
2019-01-09T22:57:51.439Z,102170.44
2019-01-09T23:00:33.264Z,102174.36
2019-01-09T23:03:02.734Z,102171.27
2019-01-09T23:05:32.041Z,102174.80
2019-01-09T23:08:01.325Z,102180.50
2019-01-09T23:10:30.675Z,102185.78
2019-01-09T23:13:00.033Z,102184.78
2019-01-09T23:15:29.294Z,102188.27
2019-01-09T23:17:58.593Z,102188.74
2019-01-09T23:20:28.359Z,102193.50
2019-01-09T23:22:57.869Z,102197.86
2019-01-09T23:25:27.137Z,102198.73
2019-01-09T23:27:56.429Z,102196.59
2019-01-09T23:30:25.709Z,102195.72
2019-01-09T23:32:55.019Z,102194.41
2019-01-09T23:35:24.295Z,102200.91
2019-01-09T23:37:53.547Z,102205.66
2019-01-09T23:40:22.827Z,102203.91
2019-01-09T23:42:52.184Z,102205.66
2019-01-09T23:45:21.530Z,102204.73
2019-01-09T23:47:50.839Z,102207.31
2019-01-09T23:50:20.180Z,102209.45
2019-01-09T23:52:49.501Z,102205.60
2019-01-09T23:55:19.008Z,102200.38
2019-01-09T23:57:48.333Z,102201.69
